sensor_id;sensor_type;location;lat;lon;timestamp;P1;durP1;ratioP1;P2;durP2;ratioP2
52730;SDS011;38624;53.242;6.974;2022-08-21T00:01:41;13.07;;;7.03;;
52730;SDS011;38624;53.242;6.974;2022-08-21T00:04:08;17.23;;;8.10;;
52730;SDS011;38624;53.242;6.974;2022-08-21T00:06:35;15.10;;;8.10;;
52730;SDS011;38624;53.242;6.974;2022-08-21T00:09:03;16.73;;;12.00;;
52730;SDS011;38624;53.242;6.974;2022-08-21T00:11:30;18.30;;;10.82;;
52730;SDS011;38624;53.242;6.974;2022-08-21T00:13:56;17.40;;;13.27;;
52730;SDS011;38624;53.242;6.974;2022-08-21T00:16:22;19.70;;;12.77;;
52730;SDS011;38624;53.242;6.974;2022-08-21T00:18:48;18.57;;;13.63;;
52730;SDS011;38624;53.242;6.974;2022-08-21T00:21:14;16.42;;;12.90;;
52730;SDS011;38624;53.242;6.974;2022-08-21T00:23:41;15.20;;;12.60;;
52730;SDS011;38624;53.242;6.974;2022-08-21T00:26:06;17.20;;;12.30;;
52730;SDS011;38624;53.242;6.974;2022-08-21T00:28:33;17.53;;;13.10;;
52730;SDS011;38624;53.242;6.974;2022-08-21T00:30:59;17.67;;;11.57;;
52730;SDS011;38624;53.242;6.974;2022-08-21T00:33:25;14.70;;;9.65;;
52730;SDS011;38624;53.242;6.974;2022-08-21T00:35:51;13.77;;;9.75;;
52730;SDS011;38624;53.242;6.974;2022-08-21T00:38:17;14.38;;;9.25;;
52730;SDS011;38624;53.242;6.974;2022-08-21T00:40:48;12.90;;;8.57;;
52730;SDS011;38624;53.242;6.974;2022-08-21T00:43:20;13.85;;;8.65;;
52730;SDS011;38624;53.242;6.974;2022-08-21T00:45:47;16.25;;;8.93;;
52730;SDS011;38624;53.242;6.974;2022-08-21T00:48:13;16.23;;;8.75;;
52730;SDS011;38624;53.242;6.974;2022-08-21T00:50:42;12.82;;;8.55;;
52730;SDS011;38624;53.242;6.974;2022-08-21T00:53:13;13.85;;;8.13;;
52730;SDS011;38624;53.242;6.974;2022-08-21T00:55:39;17.75;;;8.70;;
52730;SDS011;38624;53.242;6.974;2022-08-21T00:58:06;12.15;;;8.60;;
52730;SDS011;38624;53.242;6.974;2022-08-21T01:00:36;13.85;;;8.40;;
52730;SDS011;38624;53.242;6.974;2022-08-21T01:03:06;14.18;;;8.55;;
52730;SDS011;38624;53.242;6.974;2022-08-21T01:05:35;16.13;;;8.23;;
52730;SDS011;38624;53.242;6.974;2022-08-21T01:08:02;13.75;;;8.45;;
52730;SDS011;38624;53.242;6.974;2022-08-21T01:10:28;14.23;;;8.25;;
52730;SDS011;38624;53.242;6.974;2022-08-21T01:12:55;15.10;;;8.73;;
52730;SDS011;38624;53.242;6.974;2022-08-21T01:15:26;12.40;;;8.18;;
52730;SDS011;38624;53.242;6.974;2022-08-21T01:17:56;12.20;;;8.57;;
52730;SDS011;38624;53.242;6.974;2022-08-21T01:20:22;12.10;;;8.17;;
52730;SDS011;38624;53.242;6.974;2022-08-21T01:22:49;13.90;;;8.10;;
52730;SDS011;38624;53.242;6.974;2022-08-21T01:25:15;10.17;;;7.70;;
52730;SDS011;38624;53.242;6.974;2022-08-21T01:27:42;15.32;;;7.63;;
52730;SDS011;38624;53.242;6.974;2022-08-21T01:30:11;13.20;;;7.60;;
52730;SDS011;38624;53.242;6.974;2022-08-21T01:32:39;15.50;;;7.65;;
52730;SDS011;38624;53.242;6.974;2022-08-21T01:35:06;13.93;;;7.37;;
52730;SDS011;38624;53.242;6.974;2022-08-21T01:37:32;11.43;;;6.53;;
52730;SDS011;38624;53.242;6.974;2022-08-21T01:39:58;14.03;;;7.03;;
52730;SDS011;38624;53.242;6.974;2022-08-21T01:42:24;14.00;;;7.00;;
52730;SDS011;38624;53.242;6.974;2022-08-21T01:44:50;10.98;;;5.95;;
52730;SDS011;38624;53.242;6.974;2022-08-21T01:47:16;12.40;;;6.23;;
52730;SDS011;38624;53.242;6.974;2022-08-21T01:49:43;10.73;;;5.85;;
52730;SDS011;38624;53.242;6.974;2022-08-21T01:52:10;12.27;;;5.75;;
52730;SDS011;38624;53.242;6.974;2022-08-21T01:54:36;11.25;;;5.50;;
52730;SDS011;38624;53.242;6.974;2022-08-21T01:57:03;9.80;;;5.25;;
52730;SDS011;38624;53.242;6.974;2022-08-21T01:59:29;9.52;;;5.40;;
52730;SDS011;38624;53.242;6.974;2022-08-21T02:01:55;15.73;;;5.75;;
52730;SDS011;38624;53.242;6.974;2022-08-21T02:04:21;11.03;;;5.73;;
52730;SDS011;38624;53.242;6.974;2022-08-21T02:06:47;14.00;;;5.50;;
52730;SDS011;38624;53.242;6.974;2022-08-21T02:09:13;10.43;;;5.57;;
52730;SDS011;38624;53.242;6.974;2022-08-21T02:11:39;10.35;;;5.30;;
52730;SDS011;38624;53.242;6.974;2022-08-21T02:14:09;9.38;;;5.10;;
52730;SDS011;38624;53.242;6.974;2022-08-21T02:16:37;12.82;;;5.75;;
52730;SDS011;38624;53.242;6.974;2022-08-21T02:19:04;12.30;;;5.30;;
52730;SDS011;38624;53.242;6.974;2022-08-21T02:21:30;16.27;;;5.28;;
52730;SDS011;38624;53.242;6.974;2022-08-21T02:23:56;10.43;;;4.93;;
52730;SDS011;38624;53.242;6.974;2022-08-21T02:26:21;12.73;;;4.80;;
52730;SDS011;38624;53.242;6.974;2022-08-21T02:28:47;7.47;;;4.43;;
52730;SDS011;38624;53.242;6.974;2022-08-21T02:31:13;11.20;;;4.80;;
52730;SDS011;38624;53.242;6.974;2022-08-21T02:33:40;10.27;;;4.00;;
52730;SDS011;38624;53.242;6.974;2022-08-21T02:36:06;11.02;;;4.30;;
52730;SDS011;38624;53.242;6.974;2022-08-21T02:41:03;8.57;;;4.18;;
52730;SDS011;38624;53.242;6.974;2022-08-21T02:43:30;10.95;;;4.55;;
52730;SDS011;38624;53.242;6.974;2022-08-21T02:45:56;8.70;;;4.60;;
52730;SDS011;38624;53.242;6.974;2022-08-21T02:48:24;8.20;;;4.55;;
52730;SDS011;38624;53.242;6.974;2022-08-21T02:50:53;9.55;;;4.18;;
52730;SDS011;38624;53.242;6.974;2022-08-21T02:53:22;9.88;;;4.85;;
52730;SDS011;38624;53.242;6.974;2022-08-21T02:55:49;10.57;;;4.70;;
52730;SDS011;38624;53.242;6.974;2022-08-21T02:58:17;9.80;;;5.22;;
52730;SDS011;38624;53.242;6.974;2022-08-21T03:00:45;9.52;;;4.75;;
52730;SDS011;38624;53.242;6.974;2022-08-21T03:03:11;11.53;;;4.90;;
52730;SDS011;38624;53.242;6.974;2022-08-21T03:05:38;11.75;;;4.55;;
52730;SDS011;38624;53.242;6.974;2022-08-21T03:08:05;11.43;;;5.30;;
52730;SDS011;38624;53.242;6.974;2022-08-21T03:10:36;9.23;;;5.20;;
52730;SDS011;38624;53.242;6.974;2022-08-21T03:13:04;10.80;;;5.30;;
52730;SDS011;38624;53.242;6.974;2022-08-21T03:15:31;9.30;;;5.38;;
52730;SDS011;38624;53.242;6.974;2022-08-21T03:17:57;9.20;;;5.17;;
52730;SDS011;38624;53.242;6.974;2022-08-21T03:20:24;8.63;;;5.22;;
52730;SDS011;38624;53.242;6.974;2022-08-21T03:22:53;9.73;;;4.60;;
52730;SDS011;38624;53.242;6.974;2022-08-21T03:25:23;8.75;;;4.95;;
52730;SDS011;38624;53.242;6.974;2022-08-21T03:27:50;9.27;;;4.75;;
52730;SDS011;38624;53.242;6.974;2022-08-21T03:30:17;13.10;;;4.73;;
52730;SDS011;38624;53.242;6.974;2022-08-21T03:32:45;11.43;;;4.78;;
52730;SDS011;38624;53.242;6.974;2022-08-21T03:35:11;13.65;;;5.03;;
52730;SDS011;38624;53.242;6.974;2022-08-21T03:37:37;12.35;;;4.72;;
52730;SDS011;38624;53.242;6.974;2022-08-21T03:40:04;14.40;;;4.97;;
52730;SDS011;38624;53.242;6.974;2022-08-21T03:42:31;10.45;;;4.78;;
52730;SDS011;38624;53.242;6.974;2022-08-21T03:44:57;10.90;;;5.10;;
52730;SDS011;38624;53.242;6.974;2022-08-21T03:47:23;8.93;;;4.60;;
52730;SDS011;38624;53.242;6.974;2022-08-21T03:49:48;10.47;;;4.83;;
52730;SDS011;38624;53.242;6.974;2022-08-21T03:52:14;6.27;;;4.27;;
52730;SDS011;38624;53.242;6.974;2022-08-21T03:54:41;11.63;;;4.53;;
52730;SDS011;38624;53.242;6.974;2022-08-21T03:57:07;8.40;;;4.40;;
52730;SDS011;38624;53.242;6.974;2022-08-21T03:59:34;7.97;;;5.15;;
52730;SDS011;38624;53.242;6.974;2022-08-21T04:02:01;10.45;;;4.75;;
52730;SDS011;38624;53.242;6.974;2022-08-21T04:04:29;9.75;;;4.70;;
52730;SDS011;38624;53.242;6.974;2022-08-21T04:06:55;12.05;;;5.15;;
52730;SDS011;38624;53.242;6.974;2022-08-21T04:11:48;11.52;;;4.78;;
52730;SDS011;38624;53.242;6.974;2022-08-21T04:14:14;12.27;;;4.82;;
52730;SDS011;38624;53.242;6.974;2022-08-21T04:16:41;10.02;;;6.30;;
52730;SDS011;38624;53.242;6.974;2022-08-21T04:19:07;10.10;;;5.38;;
52730;SDS011;38624;53.242;6.974;2022-08-21T04:24:03;15.75;;;5.45;;
52730;SDS011;38624;53.242;6.974;2022-08-21T04:28:56;9.77;;;5.35;;
52730;SDS011;38624;53.242;6.974;2022-08-21T04:33:49;10.57;;;5.18;;
52730;SDS011;38624;53.242;6.974;2022-08-21T04:36:15;11.25;;;5.97;;
52730;SDS011;38624;53.242;6.974;2022-08-21T04:38:42;16.40;;;6.00;;
52730;SDS011;38624;53.242;6.974;2022-08-21T04:41:07;13.37;;;5.93;;
52730;SDS011;38624;53.242;6.974;2022-08-21T04:43:33;8.80;;;5.80;;
52730;SDS011;38624;53.242;6.974;2022-08-21T04:45:59;12.88;;;5.93;;
52730;SDS011;38624;53.242;6.974;2022-08-21T04:48:25;12.87;;;6.50;;
52730;SDS011;38624;53.242;6.974;2022-08-21T04:51:03;10.77;;;5.83;;
52730;SDS011;38624;53.242;6.974;2022-08-21T04:53:48;8.95;;;5.20;;
52730;SDS011;38624;53.242;6.974;2022-08-21T04:56:22;9.77;;;5.53;;
52730;SDS011;38624;53.242;6.974;2022-08-21T04:59:03;8.70;;;5.60;;
52730;SDS011;38624;53.242;6.974;2022-08-21T05:01:32;12.40;;;6.05;;
52730;SDS011;38624;53.242;6.974;2022-08-21T05:04:01;11.05;;;5.65;;
52730;SDS011;38624;53.242;6.974;2022-08-21T05:06:30;10.23;;;5.55;;
52730;SDS011;38624;53.242;6.974;2022-08-21T05:08:58;10.35;;;5.95;;
52730;SDS011;38624;53.242;6.974;2022-08-21T05:11:25;12.65;;;5.75;;
52730;SDS011;38624;53.242;6.974;2022-08-21T05:13:50;14.47;;;5.73;;
52730;SDS011;38624;53.242;6.974;2022-08-21T05:16:16;11.70;;;5.97;;
52730;SDS011;38624;53.242;6.974;2022-08-21T05:18:42;13.73;;;6.77;;
52730;SDS011;38624;53.242;6.974;2022-08-21T05:21:08;10.18;;;5.85;;
52730;SDS011;38624;53.242;6.974;2022-08-21T05:23:34;9.67;;;5.80;;
52730;SDS011;38624;53.242;6.974;2022-08-21T05:26:00;9.30;;;5.90;;
52730;SDS011;38624;53.242;6.974;2022-08-21T05:28:26;9.27;;;6.00;;
52730;SDS011;38624;53.242;6.974;2022-08-21T05:30:52;11.70;;;6.50;;
52730;SDS011;38624;53.242;6.974;2022-08-21T05:33:18;11.13;;;6.67;;
52730;SDS011;38624;53.242;6.974;2022-08-21T05:35:44;13.20;;;6.80;;
52730;SDS011;38624;53.242;6.974;2022-08-21T05:38:10;10.43;;;6.73;;
52730;SDS011;38624;53.242;6.974;2022-08-21T05:40:36;8.30;;;6.53;;
52730;SDS011;38624;53.242;6.974;2022-08-21T05:43:02;15.80;;;7.00;;
52730;SDS011;38624;53.242;6.974;2022-08-21T05:45:29;15.70;;;7.00;;
52730;SDS011;38624;53.242;6.974;2022-08-21T05:47:57;11.48;;;6.65;;
52730;SDS011;38624;53.242;6.974;2022-08-21T05:50:22;12.83;;;7.47;;
52730;SDS011;38624;53.242;6.974;2022-08-21T05:52:48;13.30;;;6.67;;
52730;SDS011;38624;53.242;6.974;2022-08-21T05:55:14;16.40;;;7.00;;
52730;SDS011;38624;53.242;6.974;2022-08-21T05:57:40;13.87;;;6.77;;
52730;SDS011;38624;53.242;6.974;2022-08-21T06:00:07;14.63;;;6.85;;
52730;SDS011;38624;53.242;6.974;2022-08-21T06:02:35;13.93;;;6.75;;
52730;SDS011;38624;53.242;6.974;2022-08-21T06:05:01;13.67;;;7.40;;
52730;SDS011;38624;53.242;6.974;2022-08-21T06:07:26;14.17;;;7.23;;
52730;SDS011;38624;53.242;6.974;2022-08-21T06:09:52;12.60;;;6.93;;
52730;SDS011;38624;53.242;6.974;2022-08-21T06:12:18;12.20;;;6.60;;
52730;SDS011;38624;53.242;6.974;2022-08-21T06:14:43;13.93;;;7.00;;
52730;SDS011;38624;53.242;6.974;2022-08-21T06:17:10;12.27;;;6.97;;
52730;SDS011;38624;53.242;6.974;2022-08-21T06:19:37;12.10;;;6.68;;
52730;SDS011;38624;53.242;6.974;2022-08-21T06:22:04;13.23;;;6.45;;
52730;SDS011;38624;53.242;6.974;2022-08-21T06:24:30;13.65;;;6.45;;
52730;SDS011;38624;53.242;6.974;2022-08-21T06:26:56;16.42;;;5.50;;
52730;SDS011;38624;53.242;6.974;2022-08-21T06:29:22;14.60;;;4.80;;
52730;SDS011;38624;53.242;6.974;2022-08-21T06:31:49;12.55;;;4.93;;
52730;SDS011;38624;53.242;6.974;2022-08-21T06:34:16;11.10;;;4.32;;
52730;SDS011;38624;53.242;6.974;2022-08-21T06:39:08;11.40;;;4.47;;
52730;SDS011;38624;53.242;6.974;2022-08-21T06:41:34;10.97;;;4.27;;
52730;SDS011;38624;53.242;6.974;2022-08-21T06:44:00;10.83;;;4.20;;
52730;SDS011;38624;53.242;6.974;2022-08-21T06:46:26;11.37;;;4.43;;
52730;SDS011;38624;53.242;6.974;2022-08-21T06:48:54;10.15;;;4.38;;
52730;SDS011;38624;53.242;6.974;2022-08-21T06:51:20;12.38;;;4.38;;
52730;SDS011;38624;53.242;6.974;2022-08-21T06:53:46;10.47;;;3.90;;
52730;SDS011;38624;53.242;6.974;2022-08-21T06:56:12;10.13;;;3.83;;
52730;SDS011;38624;53.242;6.974;2022-08-21T06:58:38;14.23;;;4.20;;
52730;SDS011;38624;53.242;6.974;2022-08-21T07:01:04;10.73;;;4.00;;
52730;SDS011;38624;53.242;6.974;2022-08-21T07:03:31;11.63;;;4.30;;
52730;SDS011;38624;53.242;6.974;2022-08-21T07:06:03;10.85;;;4.18;;
52730;SDS011;38624;53.242;6.974;2022-08-21T07:08:30;11.00;;;4.00;;
52730;SDS011;38624;53.242;6.974;2022-08-21T07:10:57;16.77;;;4.53;;
52730;SDS011;38624;53.242;6.974;2022-08-21T07:13:25;12.10;;;4.15;;
52730;SDS011;38624;53.242;6.974;2022-08-21T07:15:51;9.98;;;3.78;;
52730;SDS011;38624;53.242;6.974;2022-08-21T07:18:17;13.73;;;5.00;;
52730;SDS011;38624;53.242;6.974;2022-08-21T07:20:43;10.13;;;4.07;;
52730;SDS011;38624;53.242;6.974;2022-08-21T07:23:12;12.98;;;4.32;;
52730;SDS011;38624;53.242;6.974;2022-08-21T07:25:57;11.13;;;4.20;;
52730;SDS011;38624;53.242;6.974;2022-08-21T07:28:24;11.85;;;3.88;;
52730;SDS011;38624;53.242;6.974;2022-08-21T07:30:50;9.03;;;3.63;;
52730;SDS011;38624;53.242;6.974;2022-08-21T07:33:18;13.38;;;3.80;;
52730;SDS011;38624;53.242;6.974;2022-08-21T07:35:43;8.73;;;3.53;;
52730;SDS011;38624;53.242;6.974;2022-08-21T07:38:09;9.67;;;3.60;;
52730;SDS011;38624;53.242;6.974;2022-08-21T07:40:35;9.07;;;3.90;;
52730;SDS011;38624;53.242;6.974;2022-08-21T07:43:00;7.40;;;3.20;;
52730;SDS011;38624;53.242;6.974;2022-08-21T07:45:26;7.23;;;3.03;;
52730;SDS011;38624;53.242;6.974;2022-08-21T07:47:52;8.52;;;3.65;;
52730;SDS011;38624;53.242;6.974;2022-08-21T07:50:18;8.27;;;3.17;;
52730;SDS011;38624;53.242;6.974;2022-08-21T07:52:44;10.30;;;3.40;;
52730;SDS011;38624;53.242;6.974;2022-08-21T07:55:13;11.05;;;3.50;;
52730;SDS011;38624;53.242;6.974;2022-08-21T07:57:40;10.40;;;3.10;;
52730;SDS011;38624;53.242;6.974;2022-08-21T08:00:07;9.23;;;3.27;;
52730;SDS011;38624;53.242;6.974;2022-08-21T08:02:35;12.40;;;2.92;;
52730;SDS011;38624;53.242;6.974;2022-08-21T08:05:02;8.07;;;2.80;;
52730;SDS011;38624;53.242;6.974;2022-08-21T08:07:28;8.88;;;2.72;;
52730;SDS011;38624;53.242;6.974;2022-08-21T08:09:54;12.32;;;3.13;;
52730;SDS011;38624;53.242;6.974;2022-08-21T08:12:20;11.03;;;2.80;;
52730;SDS011;38624;53.242;6.974;2022-08-21T08:14:47;8.48;;;2.90;;
52730;SDS011;38624;53.242;6.974;2022-08-21T08:17:13;8.33;;;2.80;;
52730;SDS011;38624;53.242;6.974;2022-08-21T08:19:39;9.23;;;2.57;;
52730;SDS011;38624;53.242;6.974;2022-08-21T08:22:14;10.77;;;2.80;;
52730;SDS011;38624;53.242;6.974;2022-08-21T08:24:44;12.40;;;3.13;;
52730;SDS011;38624;53.242;6.974;2022-08-21T08:27:13;8.80;;;2.80;;
52730;SDS011;38624;53.242;6.974;2022-08-21T08:32:05;8.02;;;2.70;;
52730;SDS011;38624;53.242;6.974;2022-08-21T08:34:35;8.73;;;2.75;;
52730;SDS011;38624;53.242;6.974;2022-08-21T08:37:02;11.30;;;3.03;;
52730;SDS011;38624;53.242;6.974;2022-08-21T08:39:29;10.07;;;2.60;;
52730;SDS011;38624;53.242;6.974;2022-08-21T08:42:29;9.93;;;2.65;;
52730;SDS011;38624;53.242;6.974;2022-08-21T08:44:50;6.90;;;2.65;;
52730;SDS011;38624;53.242;6.974;2022-08-21T08:47:24;9.45;;;2.72;;
52730;SDS011;38624;53.242;6.974;2022-08-21T08:49:55;12.25;;;2.95;;
52730;SDS011;38624;53.242;6.974;2022-08-21T08:52:24;9.02;;;2.53;;
52730;SDS011;38624;53.242;6.974;2022-08-21T08:55:36;12.93;;;3.08;;
52730;SDS011;38624;53.242;6.974;2022-08-21T08:57:46;7.88;;;2.60;;
52730;SDS011;38624;53.242;6.974;2022-08-21T09:00:14;10.60;;;2.55;;
52730;SDS011;38624;53.242;6.974;2022-08-21T09:02:42;10.60;;;2.42;;
52730;SDS011;38624;53.242;6.974;2022-08-21T09:10:22;9.15;;;2.35;;
52730;SDS011;38624;53.242;6.974;2022-08-21T09:13:07;10.88;;;2.70;;
52730;SDS011;38624;53.242;6.974;2022-08-21T09:15:54;9.73;;;2.58;;
52730;SDS011;38624;53.242;6.974;2022-08-21T09:21:41;12.00;;;2.35;;
52730;SDS011;38624;53.242;6.974;2022-08-21T09:27:22;10.38;;;2.47;;
52730;SDS011;38624;53.242;6.974;2022-08-21T09:29:50;11.93;;;2.60;;
52730;SDS011;38624;53.242;6.974;2022-08-21T09:32:21;10.48;;;2.70;;
52730;SDS011;38624;53.242;6.974;2022-08-21T09:37:54;9.77;;;2.08;;
52730;SDS011;38624;53.242;6.974;2022-08-21T09:40:36;7.93;;;2.10;;
52730;SDS011;38624;53.242;6.974;2022-08-21T09:43:07;7.78;;;2.20;;
52730;SDS011;38624;53.242;6.974;2022-08-21T09:45:40;8.48;;;1.83;;
52730;SDS011;38624;53.242;6.974;2022-08-21T09:48:21;5.95;;;2.08;;
52730;SDS011;38624;53.242;6.974;2022-08-21T09:50:49;9.57;;;2.10;;
52730;SDS011;38624;53.242;6.974;2022-08-21T09:53:21;6.65;;;1.92;;
52730;SDS011;38624;53.242;6.974;2022-08-21T09:58:44;7.97;;;2.17;;
52730;SDS011;38624;53.242;6.974;2022-08-21T10:01:20;7.03;;;2.08;;
52730;SDS011;38624;53.242;6.974;2022-08-21T10:03:47;7.90;;;2.47;;
52730;SDS011;38624;53.242;6.974;2022-08-21T10:06:23;12.02;;;1.95;;
52730;SDS011;38624;53.242;6.974;2022-08-21T10:09:02;8.60;;;2.20;;
52730;SDS011;38624;53.242;6.974;2022-08-21T10:11:30;7.68;;;1.63;;
52730;SDS011;38624;53.242;6.974;2022-08-21T10:17:01;10.27;;;2.15;;
52730;SDS011;38624;53.242;6.974;2022-08-21T10:22:24;8.05;;;2.03;;
52730;SDS011;38624;53.242;6.974;2022-08-21T10:25:18;8.13;;;1.77;;
52730;SDS011;38624;53.242;6.974;2022-08-21T10:28:20;6.65;;;1.52;;
52730;SDS011;38624;53.242;6.974;2022-08-21T10:34:07;7.32;;;1.70;;
52730;SDS011;38624;53.242;6.974;2022-08-21T10:36:46;5.97;;;1.60;;
52730;SDS011;38624;53.242;6.974;2022-08-21T10:47:56;8.23;;;1.73;;
52730;SDS011;38624;53.242;6.974;2022-08-21T10:52:46;5.40;;;2.00;;
52730;SDS011;38624;53.242;6.974;2022-08-21T11:06:37;7.45;;;1.88;;
52730;SDS011;38624;53.242;6.974;2022-08-21T11:09:14;4.70;;;1.60;;
52730;SDS011;38624;53.242;6.974;2022-08-21T11:12:00;10.15;;;2.25;;
52730;SDS011;38624;53.242;6.974;2022-08-21T11:17:13;7.82;;;1.92;;
52730;SDS011;38624;53.242;6.974;2022-08-21T11:20:18;8.95;;;1.85;;
52730;SDS011;38624;53.242;6.974;2022-08-21T11:25:35;5.45;;;1.45;;
52730;SDS011;38624;53.242;6.974;2022-08-21T11:28:47;6.28;;;1.80;;
52730;SDS011;38624;53.242;6.974;2022-08-21T11:31:14;5.72;;;1.70;;
52730;SDS011;38624;53.242;6.974;2022-08-21T11:33:55;6.97;;;2.10;;
52730;SDS011;38624;53.242;6.974;2022-08-21T11:36:40;7.00;;;1.80;;
52730;SDS011;38624;53.242;6.974;2022-08-21T11:44:47;7.82;;;2.15;;
52730;SDS011;38624;53.242;6.974;2022-08-21T11:47:40;7.93;;;1.83;;
52730;SDS011;38624;53.242;6.974;2022-08-21T11:50:21;7.57;;;1.98;;
52730;SDS011;38624;53.242;6.974;2022-08-21T11:52:53;5.82;;;1.80;;
52730;SDS011;38624;53.242;6.974;2022-08-21T11:55:36;6.00;;;1.65;;
52730;SDS011;38624;53.242;6.974;2022-08-21T11:58:38;5.10;;;1.77;;
52730;SDS011;38624;53.242;6.974;2022-08-21T12:01:07;3.78;;;1.60;;
52730;SDS011;38624;53.242;6.974;2022-08-21T12:03:51;6.47;;;1.90;;
52730;SDS011;38624;53.242;6.974;2022-08-21T12:06:31;6.22;;;2.00;;
52730;SDS011;38624;53.242;6.974;2022-08-21T12:09:05;6.88;;;2.00;;
52730;SDS011;38624;53.242;6.974;2022-08-21T12:11:50;7.45;;;1.80;;
52730;SDS011;38624;53.242;6.974;2022-08-21T12:14:34;5.57;;;2.08;;
52730;SDS011;38624;53.242;6.974;2022-08-21T12:19:30;9.10;;;1.92;;
52730;SDS011;38624;53.242;6.974;2022-08-21T12:24:33;4.67;;;1.63;;
52730;SDS011;38624;53.242;6.974;2022-08-21T12:32:58;5.22;;;1.70;;
52730;SDS011;38624;53.242;6.974;2022-08-21T12:35:44;5.32;;;1.77;;
52730;SDS011;38624;53.242;6.974;2022-08-21T12:40:53;7.70;;;1.60;;
52730;SDS011;38624;53.242;6.974;2022-08-21T12:43:21;9.18;;;1.88;;
52730;SDS011;38624;53.242;6.974;2022-08-21T12:45:53;4.03;;;1.55;;
52730;SDS011;38624;53.242;6.974;2022-08-21T12:48:41;6.68;;;1.65;;
52730;SDS011;38624;53.242;6.974;2022-08-21T12:51:14;5.68;;;1.60;;
52730;SDS011;38624;53.242;6.974;2022-08-21T12:53:48;6.70;;;2.10;;
52730;SDS011;38624;53.242;6.974;2022-08-21T12:56:15;4.75;;;1.45;;
52730;SDS011;38624;53.242;6.974;2022-08-21T12:58:47;6.60;;;1.60;;
52730;SDS011;38624;53.242;6.974;2022-08-21T13:03:50;9.20;;;1.60;;
52730;SDS011;38624;53.242;6.974;2022-08-21T13:06:18;4.13;;;1.50;;
52730;SDS011;38624;53.242;6.974;2022-08-21T13:08:46;4.97;;;1.55;;
52730;SDS011;38624;53.242;6.974;2022-08-21T13:11:16;4.68;;;1.40;;
52730;SDS011;38624;53.242;6.974;2022-08-21T13:13:48;6.50;;;1.60;;
52730;SDS011;38624;53.242;6.974;2022-08-21T13:16:27;5.15;;;1.70;;
52730;SDS011;38624;53.242;6.974;2022-08-21T13:18:58;6.88;;;1.70;;
52730;SDS011;38624;53.242;6.974;2022-08-21T13:21:30;6.93;;;1.75;;
52730;SDS011;38624;53.242;6.974;2022-08-21T13:24:15;6.80;;;1.92;;
52730;SDS011;38624;53.242;6.974;2022-08-21T13:26:49;6.63;;;1.73;;
52730;SDS011;38624;53.242;6.974;2022-08-21T13:29:17;5.63;;;1.67;;
52730;SDS011;38624;53.242;6.974;2022-08-21T13:31:49;6.82;;;1.65;;
52730;SDS011;38624;53.242;6.974;2022-08-21T13:34:31;6.18;;;1.98;;
52730;SDS011;38624;53.242;6.974;2022-08-21T13:37:01;5.07;;;1.70;;
52730;SDS011;38624;53.242;6.974;2022-08-21T13:39:32;5.53;;;1.85;;
52730;SDS011;38624;53.242;6.974;2022-08-21T13:41:59;5.78;;;1.90;;
52730;SDS011;38624;53.242;6.974;2022-08-21T13:44:33;6.30;;;1.85;;
52730;SDS011;38624;53.242;6.974;2022-08-21T13:47:02;9.20;;;1.90;;
52730;SDS011;38624;53.242;6.974;2022-08-21T13:49:33;8.20;;;1.80;;
52730;SDS011;38624;53.242;6.974;2022-08-21T13:52:03;8.40;;;2.13;;
52730;SDS011;38624;53.242;6.974;2022-08-21T13:54:39;4.80;;;1.80;;
52730;SDS011;38624;53.242;6.974;2022-08-21T13:57:15;6.30;;;1.70;;
52730;SDS011;38624;53.242;6.974;2022-08-21T13:59:43;5.85;;;1.67;;
52730;SDS011;38624;53.242;6.974;2022-08-21T14:02:13;6.65;;;1.50;;
52730;SDS011;38624;53.242;6.974;2022-08-21T14:04:58;8.00;;;2.00;;
52730;SDS011;38624;53.242;6.974;2022-08-21T14:07:28;4.88;;;1.60;;
52730;SDS011;38624;53.242;6.974;2022-08-21T14:10:06;6.70;;;1.77;;
52730;SDS011;38624;53.242;6.974;2022-08-21T14:15:57;5.35;;;1.45;;
52730;SDS011;38624;53.242;6.974;2022-08-21T14:18:25;4.30;;;1.40;;
52730;SDS011;38624;53.242;6.974;2022-08-21T14:20:51;4.88;;;1.48;;
52730;SDS011;38624;53.242;6.974;2022-08-21T14:23:28;6.05;;;1.58;;
52730;SDS011;38624;53.242;6.974;2022-08-21T14:25:54;5.63;;;1.55;;
52730;SDS011;38624;53.242;6.974;2022-08-21T14:28:38;5.90;;;1.52;;
52730;SDS011;38624;53.242;6.974;2022-08-21T14:33:45;5.63;;;1.67;;
52730;SDS011;38624;53.242;6.974;2022-08-21T14:36:11;7.35;;;1.90;;
52730;SDS011;38624;53.242;6.974;2022-08-21T14:38:38;9.48;;;2.45;;
52730;SDS011;38624;53.242;6.974;2022-08-21T14:41:23;9.45;;;2.05;;
52730;SDS011;38624;53.242;6.974;2022-08-21T14:43:52;7.55;;;1.88;;
52730;SDS011;38624;53.242;6.974;2022-08-21T14:46:27;6.57;;;1.55;;
52730;SDS011;38624;53.242;6.974;2022-08-21T14:48:54;6.18;;;1.95;;
52730;SDS011;38624;53.242;6.974;2022-08-21T14:51:20;5.65;;;1.98;;
52730;SDS011;38624;53.242;6.974;2022-08-21T14:53:46;5.72;;;1.90;;
52730;SDS011;38624;53.242;6.974;2022-08-21T14:56:13;8.23;;;1.98;;
52730;SDS011;38624;53.242;6.974;2022-08-21T14:58:40;7.50;;;1.85;;
52730;SDS011;38624;53.242;6.974;2022-08-21T15:01:08;9.82;;;2.03;;
52730;SDS011;38624;53.242;6.974;2022-08-21T15:03:36;4.68;;;1.55;;
52730;SDS011;38624;53.242;6.974;2022-08-21T15:06:03;7.47;;;1.85;;
52730;SDS011;38624;53.242;6.974;2022-08-21T15:08:30;8.70;;;2.22;;
52730;SDS011;38624;53.242;6.974;2022-08-21T15:10:57;7.72;;;1.90;;
52730;SDS011;38624;53.242;6.974;2022-08-21T15:15:50;5.70;;;1.77;;
52730;SDS011;38624;53.242;6.974;2022-08-21T15:18:18;7.90;;;1.80;;
52730;SDS011;38624;53.242;6.974;2022-08-21T15:20:45;6.82;;;2.00;;
52730;SDS011;38624;53.242;6.974;2022-08-21T15:23:10;7.10;;;1.75;;
52730;SDS011;38624;53.242;6.974;2022-08-21T15:25:40;6.85;;;1.90;;
52730;SDS011;38624;53.242;6.974;2022-08-21T15:28:07;8.77;;;1.92;;
52730;SDS011;38624;53.242;6.974;2022-08-21T15:30:34;5.65;;;1.70;;
52730;SDS011;38624;53.242;6.974;2022-08-21T15:33:01;10.40;;;1.95;;
52730;SDS011;38624;53.242;6.974;2022-08-21T15:35:26;5.70;;;1.60;;
52730;SDS011;38624;53.242;6.974;2022-08-21T15:37:52;7.60;;;1.80;;
52730;SDS011;38624;53.242;6.974;2022-08-21T15:40:18;4.47;;;1.45;;
52730;SDS011;38624;53.242;6.974;2022-08-21T15:42:44;8.15;;;1.95;;
52730;SDS011;38624;53.242;6.974;2022-08-21T15:45:10;7.38;;;1.58;;
52730;SDS011;38624;53.242;6.974;2022-08-21T15:47:37;6.50;;;1.50;;
52730;SDS011;38624;53.242;6.974;2022-08-21T15:50:05;8.15;;;1.77;;
52730;SDS011;38624;53.242;6.974;2022-08-21T15:52:32;5.03;;;1.88;;
52730;SDS011;38624;53.242;6.974;2022-08-21T15:54:58;6.47;;;1.88;;
52730;SDS011;38624;53.242;6.974;2022-08-21T15:57:24;6.03;;;1.80;;
52730;SDS011;38624;53.242;6.974;2022-08-21T15:59:56;7.13;;;1.70;;
52730;SDS011;38624;53.242;6.974;2022-08-21T16:02:26;7.35;;;2.00;;
52730;SDS011;38624;53.242;6.974;2022-08-21T16:04:54;7.65;;;1.98;;
52730;SDS011;38624;53.242;6.974;2022-08-21T16:07:20;5.93;;;1.75;;
52730;SDS011;38624;53.242;6.974;2022-08-21T16:09:45;5.55;;;1.63;;
52730;SDS011;38624;53.242;6.974;2022-08-21T16:12:13;8.77;;;1.63;;
52730;SDS011;38624;53.242;6.974;2022-08-21T16:14:44;6.97;;;1.83;;
52730;SDS011;38624;53.242;6.974;2022-08-21T16:17:10;8.70;;;2.17;;
52730;SDS011;38624;53.242;6.974;2022-08-21T16:19:36;6.28;;;1.80;;
52730;SDS011;38624;53.242;6.974;2022-08-21T16:24:28;7.82;;;1.83;;
52730;SDS011;38624;53.242;6.974;2022-08-21T16:26:54;6.93;;;1.95;;
52730;SDS011;38624;53.242;6.974;2022-08-21T16:29:21;6.38;;;2.03;;
52730;SDS011;38624;53.242;6.974;2022-08-21T16:31:47;6.60;;;1.80;;
52730;SDS011;38624;53.242;6.974;2022-08-21T16:34:15;9.63;;;2.22;;
52730;SDS011;38624;53.242;6.974;2022-08-21T16:36:42;5.97;;;2.03;;
52730;SDS011;38624;53.242;6.974;2022-08-21T16:39:08;7.20;;;1.75;;